< < Back
Terminal Aerodrome Forecast


Current Version              Previous Versions:   1  2  3  4  5  6  7  8  9  

Terminal Aerodrome Forecast

410
FTUS44 KMOB 012322
TAFPNS
TAF
KPNS 012322Z 0200/0224 24010KT P6SM VCSH SCT030 SCT250
     FM020300 25005KT P6SM SCT035 SCT250
     FM021500 25010KT P6SM SCT040 SCT250=

Latest METAR

155
SAUS70 KWBC 030000 RRK
MTRPNS
METAR KPNS 022353Z 23011KT 10SM CLR 29/22 A3004 RMK AO2 SLP172 T02890222
10322 20289 56002


USA.gov is the U.S. government's official web portal to all federal, state and local government web resources and services.